sensor_id;sensor_type;location;lat;lon;timestamp;P1;durP1;ratioP1;P2;durP2;ratioP2
54555;SDS011;57291;37.520;15.106;2024-02-04T00:02:21;28.00;;;16.20;;
54555;SDS011;57291;37.520;15.106;2024-02-04T00:04:52;17.77;;;12.68;;
54555;SDS011;57291;37.520;15.106;2024-02-04T00:07:19;22.52;;;13.27;;
54555;SDS011;57291;37.520;15.106;2024-02-04T00:09:47;18.40;;;13.75;;
54555;SDS011;57291;37.520;15.106;2024-02-04T00:12:14;23.05;;;14.20;;
54555;SDS011;57291;37.520;15.106;2024-02-04T00:14:41;18.30;;;12.48;;
54555;SDS011;57291;37.520;15.106;2024-02-04T00:17:09;17.88;;;12.00;;
54555;SDS011;57291;37.520;15.106;2024-02-04T00:19:36;14.32;;;10.75;;
54555;SDS011;57291;37.520;15.106;2024-02-04T00:22:04;14.20;;;10.25;;
54555;SDS011;57291;37.520;15.106;2024-02-04T00:24:31;15.07;;;9.82;;
54555;SDS011;57291;37.520;15.106;2024-02-04T00:26:58;16.85;;;9.85;;
54555;SDS011;57291;37.520;15.106;2024-02-04T00:29:26;13.65;;;9.63;;
54555;SDS011;57291;37.520;15.106;2024-02-04T00:31:53;15.55;;;9.35;;
54555;SDS011;57291;37.520;15.106;2024-02-04T00:34:24;16.15;;;9.23;;
54555;SDS011;57291;37.520;15.106;2024-02-04T00:36:51;12.93;;;8.90;;
54555;SDS011;57291;37.520;15.106;2024-02-04T00:39:19;13.68;;;8.45;;
54555;SDS011;57291;37.520;15.106;2024-02-04T00:41:46;14.02;;;8.38;;
54555;SDS011;57291;37.520;15.106;2024-02-04T00:44:14;12.80;;;8.05;;
54555;SDS011;57291;37.520;15.106;2024-02-04T00:46:41;11.00;;;7.95;;
54555;SDS011;57291;37.520;15.106;2024-02-04T00:49:08;12.27;;;8.45;;
54555;SDS011;57291;37.520;15.106;2024-02-04T00:51:36;11.85;;;8.13;;
54555;SDS011;57291;37.520;15.106;2024-02-04T00:54:03;12.23;;;7.90;;
54555;SDS011;57291;37.520;15.106;2024-02-04T00:56:32;11.35;;;8.07;;
54555;SDS011;57291;37.520;15.106;2024-02-04T00:58:59;13.48;;;8.45;;
54555;SDS011;57291;37.520;15.106;2024-02-04T01:01:26;12.70;;;8.57;;
54555;SDS011;57291;37.520;15.106;2024-02-04T01:03:54;12.88;;;9.43;;
54555;SDS011;57291;37.520;15.106;2024-02-04T01:06:21;12.63;;;9.18;;
54555;SDS011;57291;37.520;15.106;2024-02-04T01:08:49;13.45;;;9.52;;
54555;SDS011;57291;37.520;15.106;2024-02-04T01:11:17;13.75;;;8.98;;
54555;SDS011;57291;37.520;15.106;2024-02-04T01:13:44;13.98;;;9.10;;
54555;SDS011;57291;37.520;15.106;2024-02-04T01:16:11;12.77;;;9.23;;
54555;SDS011;57291;37.520;15.106;2024-02-04T01:18:39;12.10;;;8.60;;
54555;SDS011;57291;37.520;15.106;2024-02-04T01:21:06;12.80;;;9.13;;
54555;SDS011;57291;37.520;15.106;2024-02-04T01:23:35;15.07;;;9.35;;
54555;SDS011;57291;37.520;15.106;2024-02-04T01:26:03;13.15;;;9.10;;
54555;SDS011;57291;37.520;15.106;2024-02-04T01:28:30;11.90;;;8.38;;
54555;SDS011;57291;37.520;15.106;2024-02-04T01:30:57;11.60;;;8.95;;
54555;SDS011;57291;37.520;15.106;2024-02-04T01:33:25;12.85;;;8.60;;
54555;SDS011;57291;37.520;15.106;2024-02-04T01:35:53;12.82;;;8.55;;
54555;SDS011;57291;37.520;15.106;2024-02-04T01:38:21;12.25;;;8.30;;
54555;SDS011;57291;37.520;15.106;2024-02-04T01:40:48;13.20;;;8.93;;
54555;SDS011;57291;37.520;15.106;2024-02-04T01:43:18;13.20;;;8.77;;
54555;SDS011;57291;37.520;15.106;2024-02-04T01:45:48;12.82;;;8.88;;
54555;SDS011;57291;37.520;15.106;2024-02-04T01:48:17;11.80;;;8.93;;
54555;SDS011;57291;37.520;15.106;2024-02-04T01:50:47;12.10;;;8.90;;
54555;SDS011;57291;37.520;15.106;2024-02-04T01:53:21;13.07;;;9.00;;
54555;SDS011;57291;37.520;15.106;2024-02-04T01:55:50;12.52;;;9.57;;
54555;SDS011;57291;37.520;15.106;2024-02-04T01:58:18;13.98;;;9.55;;
54555;SDS011;57291;37.520;15.106;2024-02-04T02:00:45;13.63;;;8.23;;
54555;SDS011;57291;37.520;15.106;2024-02-04T02:03:15;12.02;;;8.15;;
54555;SDS011;57291;37.520;15.106;2024-02-04T02:05:43;10.10;;;7.53;;
54555;SDS011;57291;37.520;15.106;2024-02-04T02:08:11;12.07;;;7.57;;
54555;SDS011;57291;37.520;15.106;2024-02-04T02:10:39;11.05;;;6.90;;
54555;SDS011;57291;37.520;15.106;2024-02-04T02:13:11;11.10;;;7.28;;
54555;SDS011;57291;37.520;15.106;2024-02-04T02:15:54;12.20;;;7.15;;
54555;SDS011;57291;37.520;15.106;2024-02-04T02:24:11;10.32;;;7.50;;
54555;SDS011;57291;37.520;15.106;2024-02-04T02:29:18;11.32;;;7.28;;
54555;SDS011;57291;37.520;15.106;2024-02-04T02:31:46;12.52;;;7.13;;
54555;SDS011;57291;37.520;15.106;2024-02-04T02:34:15;10.75;;;6.78;;
54555;SDS011;57291;37.520;15.106;2024-02-04T02:36:55;10.90;;;7.07;;
54555;SDS011;57291;37.520;15.106;2024-02-04T02:39:34;10.27;;;6.90;;
54555;SDS011;57291;37.520;15.106;2024-02-04T02:42:35;8.63;;;5.50;;
54555;SDS011;57291;37.520;15.106;2024-02-04T02:45:05;7.45;;;4.82;;
54555;SDS011;57291;37.520;15.106;2024-02-04T02:47:34;11.05;;;5.35;;
54555;SDS011;57291;37.520;15.106;2024-02-04T02:50:03;8.05;;;5.65;;
54555;SDS011;57291;37.520;15.106;2024-02-04T02:52:32;8.35;;;5.45;;
54555;SDS011;57291;37.520;15.106;2024-02-04T02:54:59;10.85;;;5.88;;
54555;SDS011;57291;37.520;15.106;2024-02-04T02:57:27;8.35;;;6.00;;
54555;SDS011;57291;37.520;15.106;2024-02-04T02:59:55;9.35;;;6.65;;
54555;SDS011;57291;37.520;15.106;2024-02-04T03:02:22;10.77;;;7.35;;
54555;SDS011;57291;37.520;15.106;2024-02-04T03:04:49;8.80;;;6.65;;
54555;SDS011;57291;37.520;15.106;2024-02-04T03:07:16;10.35;;;7.18;;
54555;SDS011;57291;37.520;15.106;2024-02-04T03:09:44;9.75;;;6.10;;
54555;SDS011;57291;37.520;15.106;2024-02-04T03:12:12;9.48;;;6.57;;
54555;SDS011;57291;37.520;15.106;2024-02-04T03:14:39;11.65;;;6.85;;
54555;SDS011;57291;37.520;15.106;2024-02-04T03:17:06;9.85;;;5.88;;
54555;SDS011;57291;37.520;15.106;2024-02-04T03:19:34;8.45;;;5.75;;
54555;SDS011;57291;37.520;15.106;2024-02-04T03:22:01;10.23;;;5.80;;
54555;SDS011;57291;37.520;15.106;2024-02-04T03:24:30;6.88;;;4.93;;
54555;SDS011;57291;37.520;15.106;2024-02-04T03:26:57;9.30;;;5.88;;
54555;SDS011;57291;37.520;15.106;2024-02-04T03:29:25;9.30;;;5.70;;
54555;SDS011;57291;37.520;15.106;2024-02-04T03:31:53;8.95;;;6.20;;
54555;SDS011;57291;37.520;15.106;2024-02-04T03:34:23;9.43;;;5.72;;
54555;SDS011;57291;37.520;15.106;2024-02-04T03:36:51;8.27;;;5.68;;
54555;SDS011;57291;37.520;15.106;2024-02-04T03:39:18;10.10;;;5.93;;
54555;SDS011;57291;37.520;15.106;2024-02-04T03:41:46;8.35;;;6.18;;
54555;SDS011;57291;37.520;15.106;2024-02-04T03:44:13;10.82;;;7.10;;
54555;SDS011;57291;37.520;15.106;2024-02-04T03:46:41;9.98;;;6.40;;
54555;SDS011;57291;37.520;15.106;2024-02-04T03:49:09;8.63;;;7.28;;
54555;SDS011;57291;37.520;15.106;2024-02-04T03:51:36;11.55;;;7.80;;
54555;SDS011;57291;37.520;15.106;2024-02-04T03:54:04;11.65;;;7.97;;
54555;SDS011;57291;37.520;15.106;2024-02-04T03:56:31;11.15;;;8.43;;
54555;SDS011;57291;37.520;15.106;2024-02-04T03:58:59;15.52;;;8.82;;
54555;SDS011;57291;37.520;15.106;2024-02-04T04:01:26;11.40;;;7.97;;
54555;SDS011;57291;37.520;15.106;2024-02-04T04:03:54;15.75;;;8.40;;
54555;SDS011;57291;37.520;15.106;2024-02-04T04:06:21;10.90;;;7.90;;
54555;SDS011;57291;37.520;15.106;2024-02-04T04:08:49;11.75;;;9.68;;
54555;SDS011;57291;37.520;15.106;2024-02-04T04:11:16;11.82;;;10.15;;
54555;SDS011;57291;37.520;15.106;2024-02-04T04:13:44;12.57;;;8.73;;
54555;SDS011;57291;37.520;15.106;2024-02-04T04:16:11;9.30;;;6.30;;
54555;SDS011;57291;37.520;15.106;2024-02-04T04:18:39;10.30;;;7.82;;
54555;SDS011;57291;37.520;15.106;2024-02-04T04:21:06;10.05;;;7.45;;
54555;SDS011;57291;37.520;15.106;2024-02-04T04:23:33;10.57;;;7.97;;
54555;SDS011;57291;37.520;15.106;2024-02-04T04:26:01;13.02;;;7.82;;
54555;SDS011;57291;37.520;15.106;2024-02-04T04:28:28;8.93;;;7.13;;
54555;SDS011;57291;37.520;15.106;2024-02-04T04:30:55;9.05;;;7.03;;
54555;SDS011;57291;37.520;15.106;2024-02-04T04:33:23;11.18;;;7.57;;
54555;SDS011;57291;37.520;15.106;2024-02-04T04:35:51;10.30;;;6.78;;
54555;SDS011;57291;37.520;15.106;2024-02-04T04:38:18;10.27;;;7.00;;
54555;SDS011;57291;37.520;15.106;2024-02-04T04:40:45;8.77;;;6.32;;
54555;SDS011;57291;37.520;15.106;2024-02-04T04:43:13;8.85;;;6.35;;
54555;SDS011;57291;37.520;15.106;2024-02-04T04:45:40;9.43;;;7.00;;
54555;SDS011;57291;37.520;15.106;2024-02-04T04:48:08;11.10;;;6.82;;
54555;SDS011;57291;37.520;15.106;2024-02-04T04:50:36;9.88;;;6.97;;
54555;SDS011;57291;37.520;15.106;2024-02-04T04:53:03;10.43;;;7.57;;
54555;SDS011;57291;37.520;15.106;2024-02-04T04:55:30;11.55;;;7.70;;
54555;SDS011;57291;37.520;15.106;2024-02-04T04:57:58;10.15;;;7.43;;
54555;SDS011;57291;37.520;15.106;2024-02-04T05:00:25;17.05;;;9.32;;
54555;SDS011;57291;37.520;15.106;2024-02-04T05:02:52;14.35;;;10.52;;
54555;SDS011;57291;37.520;15.106;2024-02-04T05:05:20;15.85;;;9.20;;
54555;SDS011;57291;37.520;15.106;2024-02-04T05:07:47;13.80;;;8.85;;
54555;SDS011;57291;37.520;15.106;2024-02-04T05:10:15;16.73;;;12.00;;
54555;SDS011;57291;37.520;15.106;2024-02-04T05:12:42;12.45;;;9.85;;
54555;SDS011;57291;37.520;15.106;2024-02-04T05:15:09;13.55;;;9.52;;
54555;SDS011;57291;37.520;15.106;2024-02-04T05:17:37;12.60;;;8.25;;
54555;SDS011;57291;37.520;15.106;2024-02-04T05:20:04;11.32;;;8.05;;
54555;SDS011;57291;37.520;15.106;2024-02-04T05:22:34;10.75;;;7.38;;
54555;SDS011;57291;37.520;15.106;2024-02-04T05:25:02;12.05;;;7.65;;
54555;SDS011;57291;37.520;15.106;2024-02-04T05:27:32;11.00;;;7.05;;
54555;SDS011;57291;37.520;15.106;2024-02-04T05:29:59;11.60;;;7.20;;
54555;SDS011;57291;37.520;15.106;2024-02-04T05:32:27;11.77;;;7.18;;
54555;SDS011;57291;37.520;15.106;2024-02-04T05:34:54;9.13;;;6.63;;
54555;SDS011;57291;37.520;15.106;2024-02-04T05:37:21;10.65;;;6.63;;
54555;SDS011;57291;37.520;15.106;2024-02-04T05:39:49;11.63;;;7.15;;
54555;SDS011;57291;37.520;15.106;2024-02-04T05:42:16;10.15;;;6.95;;
54555;SDS011;57291;37.520;15.106;2024-02-04T05:44:44;8.82;;;6.32;;
54555;SDS011;57291;37.520;15.106;2024-02-04T05:47:11;9.00;;;6.20;;
54555;SDS011;57291;37.520;15.106;2024-02-04T05:49:39;10.82;;;6.80;;
54555;SDS011;57291;37.520;15.106;2024-02-04T05:52:08;8.55;;;6.35;;
54555;SDS011;57291;37.520;15.106;2024-02-04T05:54:38;11.05;;;6.07;;
54555;SDS011;57291;37.520;15.106;2024-02-04T05:57:06;8.23;;;6.68;;
54555;SDS011;57291;37.520;15.106;2024-02-04T05:59:34;10.25;;;7.15;;
54555;SDS011;57291;37.520;15.106;2024-02-04T06:02:01;9.00;;;5.80;;
54555;SDS011;57291;37.520;15.106;2024-02-04T06:04:29;55.00;;;34.55;;
54555;SDS011;57291;37.520;15.106;2024-02-04T06:06:56;16.42;;;11.18;;
54555;SDS011;57291;37.520;15.106;2024-02-04T06:09:24;11.05;;;7.32;;
54555;SDS011;57291;37.520;15.106;2024-02-04T06:11:52;9.90;;;5.93;;
54555;SDS011;57291;37.520;15.106;2024-02-04T06:14:19;7.40;;;5.55;;
54555;SDS011;57291;37.520;15.106;2024-02-04T06:16:46;11.52;;;5.05;;
54555;SDS011;57291;37.520;15.106;2024-02-04T06:19:14;10.18;;;4.70;;
54555;SDS011;57291;37.520;15.106;2024-02-04T06:21:42;7.00;;;4.13;;
54555;SDS011;57291;37.520;15.106;2024-02-04T06:24:09;7.60;;;4.50;;
54555;SDS011;57291;37.520;15.106;2024-02-04T06:26:39;8.25;;;4.82;;
54555;SDS011;57291;37.520;15.106;2024-02-04T06:29:08;7.80;;;4.88;;
54555;SDS011;57291;37.520;15.106;2024-02-04T06:31:35;9.45;;;5.53;;
54555;SDS011;57291;37.520;15.106;2024-02-04T06:34:03;9.50;;;5.00;;
54555;SDS011;57291;37.520;15.106;2024-02-04T06:36:30;7.80;;;4.82;;
54555;SDS011;57291;37.520;15.106;2024-02-04T06:38:58;9.18;;;5.30;;
54555;SDS011;57291;37.520;15.106;2024-02-04T06:41:25;9.85;;;5.82;;
54555;SDS011;57291;37.520;15.106;2024-02-04T06:43:52;10.15;;;5.90;;
54555;SDS011;57291;37.520;15.106;2024-02-04T06:46:23;12.05;;;6.95;;
54555;SDS011;57291;37.520;15.106;2024-02-04T06:48:54;13.45;;;7.28;;
54555;SDS011;57291;37.520;15.106;2024-02-04T06:51:22;12.32;;;7.60;;
54555;SDS011;57291;37.520;15.106;2024-02-04T06:53:50;13.48;;;7.30;;
54555;SDS011;57291;37.520;15.106;2024-02-04T06:56:17;15.30;;;7.65;;
54555;SDS011;57291;37.520;15.106;2024-02-04T06:58:44;15.00;;;7.78;;
54555;SDS011;57291;37.520;15.106;2024-02-04T07:01:12;13.13;;;7.68;;
54555;SDS011;57291;37.520;15.106;2024-02-04T07:03:40;16.15;;;7.68;;
54555;SDS011;57291;37.520;15.106;2024-02-04T07:06:07;11.07;;;6.22;;
54555;SDS011;57291;37.520;15.106;2024-02-04T07:08:34;10.63;;;6.72;;
54555;SDS011;57291;37.520;15.106;2024-02-04T07:11:01;14.90;;;7.32;;
54555;SDS011;57291;37.520;15.106;2024-02-04T07:13:30;15.35;;;8.45;;
54555;SDS011;57291;37.520;15.106;2024-02-04T07:15:57;25.13;;;9.10;;
54555;SDS011;57291;37.520;15.106;2024-02-04T07:18:25;17.85;;;8.60;;
54555;SDS011;57291;37.520;15.106;2024-02-04T07:20:52;19.05;;;8.25;;
54555;SDS011;57291;37.520;15.106;2024-02-04T07:23:20;18.65;;;9.70;;
54555;SDS011;57291;37.520;15.106;2024-02-04T07:25:48;36.65;;;16.02;;
54555;SDS011;57291;37.520;15.106;2024-02-04T07:28:15;29.48;;;16.83;;
54555;SDS011;57291;37.520;15.106;2024-02-04T07:30:43;29.75;;;16.58;;
54555;SDS011;57291;37.520;15.106;2024-02-04T07:33:10;27.00;;;16.73;;
54555;SDS011;57291;37.520;15.106;2024-02-04T07:35:37;37.75;;;20.25;;
54555;SDS011;57291;37.520;15.106;2024-02-04T07:38:05;38.20;;;19.42;;
54555;SDS011;57291;37.520;15.106;2024-02-04T07:40:32;33.15;;;18.63;;
54555;SDS011;57291;37.520;15.106;2024-02-04T07:43:01;32.85;;;16.38;;
54555;SDS011;57291;37.520;15.106;2024-02-04T07:45:29;28.77;;;16.42;;
54555;SDS011;57291;37.520;15.106;2024-02-04T07:47:56;22.05;;;14.57;;
54555;SDS011;57291;37.520;15.106;2024-02-04T07:50:24;25.75;;;13.90;;
54555;SDS011;57291;37.520;15.106;2024-02-04T07:52:51;23.40;;;13.35;;
54555;SDS011;57291;37.520;15.106;2024-02-04T07:55:19;22.08;;;11.77;;
54555;SDS011;57291;37.520;15.106;2024-02-04T07:57:46;23.70;;;10.80;;
54555;SDS011;57291;37.520;15.106;2024-02-04T08:00:14;22.30;;;10.27;;
54555;SDS011;57291;37.520;15.106;2024-02-04T08:02:43;19.25;;;11.23;;
54555;SDS011;57291;37.520;15.106;2024-02-04T08:05:11;26.98;;;11.40;;
54555;SDS011;57291;37.520;15.106;2024-02-04T08:07:39;19.20;;;10.95;;
54555;SDS011;57291;37.520;15.106;2024-02-04T08:10:08;20.02;;;11.07;;
54555;SDS011;57291;37.520;15.106;2024-02-04T08:12:35;20.48;;;11.23;;
54555;SDS011;57291;37.520;15.106;2024-02-04T08:15:03;18.92;;;11.40;;
54555;SDS011;57291;37.520;15.106;2024-02-04T08:17:31;18.25;;;10.65;;
54555;SDS011;57291;37.520;15.106;2024-02-04T08:19:59;17.25;;;10.15;;
54555;SDS011;57291;37.520;15.106;2024-02-04T08:22:27;21.48;;;11.50;;
54555;SDS011;57291;37.520;15.106;2024-02-04T08:24:55;22.98;;;10.02;;
54555;SDS011;57291;37.520;15.106;2024-02-04T08:27:23;17.52;;;9.30;;
54555;SDS011;57291;37.520;15.106;2024-02-04T08:29:50;19.23;;;8.38;;
54555;SDS011;57291;37.520;15.106;2024-02-04T08:32:18;18.08;;;8.88;;
54555;SDS011;57291;37.520;15.106;2024-02-04T08:34:45;15.52;;;7.80;;
54555;SDS011;57291;37.520;15.106;2024-02-04T08:37:12;13.98;;;8.00;;
54555;SDS011;57291;37.520;15.106;2024-02-04T08:39:40;15.13;;;7.18;;
54555;SDS011;57291;37.520;15.106;2024-02-04T08:42:07;11.70;;;6.55;;
54555;SDS011;57291;37.520;15.106;2024-02-04T08:44:35;14.38;;;6.90;;
54555;SDS011;57291;37.520;15.106;2024-02-04T08:47:06;12.85;;;6.32;;
54555;SDS011;57291;37.520;15.106;2024-02-04T08:49:37;20.25;;;6.88;;
54555;SDS011;57291;37.520;15.106;2024-02-04T08:52:05;10.52;;;5.70;;
54555;SDS011;57291;37.520;15.106;2024-02-04T08:54:33;8.50;;;5.47;;
54555;SDS011;57291;37.520;15.106;2024-02-04T08:57:00;15.80;;;6.45;;
54555;SDS011;57291;37.520;15.106;2024-02-04T08:59:27;9.73;;;5.03;;
54555;SDS011;57291;37.520;15.106;2024-02-04T09:01:56;8.90;;;4.90;;
54555;SDS011;57291;37.520;15.106;2024-02-04T09:04:23;12.50;;;5.05;;
54555;SDS011;57291;37.520;15.106;2024-02-04T09:06:50;14.65;;;6.30;;
54555;SDS011;57291;37.520;15.106;2024-02-04T09:09:18;13.20;;;6.53;;
54555;SDS011;57291;37.520;15.106;2024-02-04T09:11:45;10.85;;;5.60;;
54555;SDS011;57291;37.520;15.106;2024-02-04T09:14:13;10.55;;;5.20;;
54555;SDS011;57291;37.520;15.106;2024-02-04T09:16:40;8.52;;;4.40;;
54555;SDS011;57291;37.520;15.106;2024-02-04T09:19:08;9.35;;;4.40;;
54555;SDS011;57291;37.520;15.106;2024-02-04T09:21:36;7.22;;;3.95;;
54555;SDS011;57291;37.520;15.106;2024-02-04T09:24:03;7.30;;;4.20;;
54555;SDS011;57291;37.520;15.106;2024-02-04T09:26:31;4.85;;;3.08;;
54555;SDS011;57291;37.520;15.106;2024-02-04T09:28:58;7.03;;;3.72;;
54555;SDS011;57291;37.520;15.106;2024-02-04T09:31:28;4.55;;;2.80;;
54555;SDS011;57291;37.520;15.106;2024-02-04T09:33:55;5.60;;;3.03;;
54555;SDS011;57291;37.520;15.106;2024-02-04T09:36:23;7.50;;;3.10;;
54555;SDS011;57291;37.520;15.106;2024-02-04T09:38:51;5.18;;;2.90;;
54555;SDS011;57291;37.520;15.106;2024-02-04T09:41:19;6.57;;;3.85;;
54555;SDS011;57291;37.520;15.106;2024-02-04T09:43:46;4.85;;;3.05;;
54555;SDS011;57291;37.520;15.106;2024-02-04T09:46:14;8.27;;;3.40;;
54555;SDS011;57291;37.520;15.106;2024-02-04T09:48:42;5.78;;;3.30;;
54555;SDS011;57291;37.520;15.106;2024-02-04T09:51:12;5.30;;;3.38;;
54555;SDS011;57291;37.520;15.106;2024-02-04T09:53:41;7.22;;;4.05;;
54555;SDS011;57291;37.520;15.106;2024-02-04T09:56:12;7.22;;;3.42;;
54555;SDS011;57291;37.520;15.106;2024-02-04T09:58:42;6.85;;;2.97;;
54555;SDS011;57291;37.520;15.106;2024-02-04T10:01:10;5.10;;;3.28;;
54555;SDS011;57291;37.520;15.106;2024-02-04T10:03:39;7.25;;;3.40;;
54555;SDS011;57291;37.520;15.106;2024-02-04T10:06:06;4.22;;;2.80;;
54555;SDS011;57291;37.520;15.106;2024-02-04T10:08:37;5.68;;;2.65;;
54555;SDS011;57291;37.520;15.106;2024-02-04T10:11:05;7.47;;;2.63;;
54555;SDS011;57291;37.520;15.106;2024-02-04T10:13:42;3.47;;;2.30;;
54555;SDS011;57291;37.520;15.106;2024-02-04T10:16:12;3.17;;;2.05;;
54555;SDS011;57291;37.520;15.106;2024-02-04T10:18:41;3.60;;;2.10;;
54555;SDS011;57291;37.520;15.106;2024-02-04T10:21:16;3.70;;;1.73;;
54555;SDS011;57291;37.520;15.106;2024-02-04T10:23:47;5.35;;;1.65;;
54555;SDS011;57291;37.520;15.106;2024-02-04T10:26:16;3.40;;;1.60;;
54555;SDS011;57291;37.520;15.106;2024-02-04T10:28:44;4.30;;;2.00;;
54555;SDS011;57291;37.520;15.106;2024-02-04T10:31:12;2.50;;;1.83;;
54555;SDS011;57291;37.520;15.106;2024-02-04T10:33:44;4.22;;;2.67;;
54555;SDS011;57291;37.520;15.106;2024-02-04T10:36:12;6.20;;;3.63;;
54555;SDS011;57291;37.520;15.106;2024-02-04T10:38:40;5.40;;;2.40;;
54555;SDS011;57291;37.520;15.106;2024-02-04T10:41:07;5.30;;;2.72;;
54555;SDS011;57291;37.520;15.106;2024-02-04T10:43:40;2.40;;;1.70;;
54555;SDS011;57291;37.520;15.106;2024-02-04T10:46:13;4.32;;;2.15;;
54555;SDS011;57291;37.520;15.106;2024-02-04T10:48:45;5.93;;;2.45;;
54555;SDS011;57291;37.520;15.106;2024-02-04T10:51:19;3.00;;;2.03;;
54555;SDS011;57291;37.520;15.106;2024-02-04T10:53:53;2.40;;;1.35;;
54555;SDS011;57291;37.520;15.106;2024-02-04T10:59:11;2.78;;;1.50;;
54555;SDS011;57291;37.520;15.106;2024-02-04T11:01:39;3.35;;;1.50;;
54555;SDS011;57291;37.520;15.106;2024-02-04T11:04:08;3.45;;;1.73;;
54555;SDS011;57291;37.520;15.106;2024-02-04T11:06:41;3.85;;;1.40;;
54555;SDS011;57291;37.520;15.106;2024-02-04T11:09:09;2.75;;;1.30;;
54555;SDS011;57291;37.520;15.106;2024-02-04T11:11:38;2.60;;;1.35;;
54555;SDS011;57291;37.520;15.106;2024-02-04T11:14:11;2.67;;;0.93;;
54555;SDS011;57291;37.520;15.106;2024-02-04T11:19:33;2.30;;;1.30;;
54555;SDS011;57291;37.520;15.106;2024-02-04T11:27:43;2.90;;;1.58;;
54555;SDS011;57291;37.520;15.106;2024-02-04T11:30:11;5.72;;;1.80;;
54555;SDS011;57291;37.520;15.106;2024-02-04T11:32:39;3.92;;;1.77;;
54555;SDS011;57291;37.520;15.106;2024-02-04T11:35:07;2.60;;;1.38;;
54555;SDS011;57291;37.520;15.106;2024-02-04T11:37:35;3.17;;;1.42;;
54555;SDS011;57291;37.520;15.106;2024-02-04T11:40:04;2.95;;;1.42;;
54555;SDS011;57291;37.520;15.106;2024-02-04T11:42:32;5.45;;;1.50;;
54555;SDS011;57291;37.520;15.106;2024-02-04T11:45:09;5.53;;;1.50;;
54555;SDS011;57291;37.520;15.106;2024-02-04T11:47:38;2.08;;;1.30;;
54555;SDS011;57291;37.520;15.106;2024-02-04T11:50:07;3.92;;;1.40;;
54555;SDS011;57291;37.520;15.106;2024-02-04T11:52:38;3.97;;;1.95;;
54555;SDS011;57291;37.520;15.106;2024-02-04T11:55:12;2.70;;;1.48;;
54555;SDS011;57291;37.520;15.106;2024-02-04T11:57:40;1.90;;;1.20;;
54555;SDS011;57291;37.520;15.106;2024-02-04T12:00:08;3.83;;;1.60;;
54555;SDS011;57291;37.520;15.106;2024-02-04T12:02:38;2.75;;;1.58;;
54555;SDS011;57291;37.520;15.106;2024-02-04T12:05:06;3.85;;;1.80;;
54555;SDS011;57291;37.520;15.106;2024-02-04T12:07:34;5.45;;;2.30;;
54555;SDS011;57291;37.520;15.106;2024-02-04T12:10:04;3.33;;;1.75;;
54555;SDS011;57291;37.520;15.106;2024-02-04T12:12:33;4.03;;;2.00;;
54555;SDS011;57291;37.520;15.106;2024-02-04T12:15:01;4.20;;;1.75;;
54555;SDS011;57291;37.520;15.106;2024-02-04T12:17:31;3.83;;;1.63;;
54555;SDS011;57291;37.520;15.106;2024-02-04T12:19:59;4.00;;;1.63;;
54555;SDS011;57291;37.520;15.106;2024-02-04T12:22:27;6.03;;;2.10;;
54555;SDS011;57291;37.520;15.106;2024-02-04T12:24:54;3.15;;;1.80;;
54555;SDS011;57291;37.520;15.106;2024-02-04T12:27:27;3.78;;;1.70;;
54555;SDS011;57291;37.520;15.106;2024-02-04T12:29:55;4.80;;;2.92;;
54555;SDS011;57291;37.520;15.106;2024-02-04T12:32:25;4.13;;;2.45;;
54555;SDS011;57291;37.520;15.106;2024-02-04T12:37:52;3.90;;;2.42;;
54555;SDS011;57291;37.520;15.106;2024-02-04T12:40:22;11.10;;;2.28;;
54555;SDS011;57291;37.520;15.106;2024-02-04T12:42:58;4.68;;;2.33;;
54555;SDS011;57291;37.520;15.106;2024-02-04T12:45:32;4.50;;;1.88;;
54555;SDS011;57291;37.520;15.106;2024-02-04T12:48:01;7.32;;;2.53;;
54555;SDS011;57291;37.520;15.106;2024-02-04T12:50:29;6.32;;;2.60;;
54555;SDS011;57291;37.520;15.106;2024-02-04T12:53:04;4.38;;;2.08;;
54555;SDS011;57291;37.520;15.106;2024-02-04T12:55:36;6.57;;;2.70;;
54555;SDS011;57291;37.520;15.106;2024-02-04T12:58:05;7.32;;;2.58;;
54555;SDS011;57291;37.520;15.106;2024-02-04T13:00:34;6.40;;;2.83;;
54555;SDS011;57291;37.520;15.106;2024-02-04T13:03:03;6.32;;;2.35;;
54555;SDS011;57291;37.520;15.106;2024-02-04T13:05:31;6.40;;;2.72;;
54555;SDS011;57291;37.520;15.106;2024-02-04T13:08:00;8.82;;;2.80;;
54555;SDS011;57291;37.520;15.106;2024-02-04T13:10:30;6.93;;;2.67;;
54555;SDS011;57291;37.520;15.106;2024-02-04T13:13:03;5.68;;;2.20;;
54555;SDS011;57291;37.520;15.106;2024-02-04T13:15:40;6.53;;;2.30;;
54555;SDS011;57291;37.520;15.106;2024-02-04T13:18:10;6.70;;;2.47;;
54555;SDS011;57291;37.520;15.106;2024-02-04T13:20:38;6.95;;;2.60;;
54555;SDS011;57291;37.520;15.106;2024-02-04T13:23:08;8.52;;;2.67;;
54555;SDS011;57291;37.520;15.106;2024-02-04T13:25:35;7.53;;;2.47;;
54555;SDS011;57291;37.520;15.106;2024-02-04T13:28:03;7.13;;;2.35;;
54555;SDS011;57291;37.520;15.106;2024-02-04T13:30:31;13.88;;;2.60;;
54555;SDS011;57291;37.520;15.106;2024-02-04T13:32:59;7.05;;;2.63;;
54555;SDS011;57291;37.520;15.106;2024-02-04T13:35:29;6.38;;;2.45;;
54555;SDS011;57291;37.520;15.106;2024-02-04T13:37:57;8.35;;;2.92;;
54555;SDS011;57291;37.520;15.106;2024-02-04T13:40:24;8.15;;;3.10;;
54555;SDS011;57291;37.520;15.106;2024-02-04T13:42:52;12.68;;;3.30;;
54555;SDS011;57291;37.520;15.106;2024-02-04T13:45:19;11.38;;;3.47;;
54555;SDS011;57291;37.520;15.106;2024-02-04T13:47:48;8.82;;;2.90;;
54555;SDS011;57291;37.520;15.106;2024-02-04T13:50:15;8.85;;;3.13;;
54555;SDS011;57291;37.520;15.106;2024-02-04T13:52:43;10.95;;;2.72;;
54555;SDS011;57291;37.520;15.106;2024-02-04T13:55:10;12.25;;;2.75;;
54555;SDS011;57291;37.520;15.106;2024-02-04T13:57:38;12.70;;;3.25;;
54555;SDS011;57291;37.520;15.106;2024-02-04T14:00:06;10.85;;;3.08;;
54555;SDS011;57291;37.520;15.106;2024-02-04T14:02:35;10.23;;;3.35;;
54555;SDS011;57291;37.520;15.106;2024-02-04T14:05:03;14.70;;;3.35;;
54555;SDS011;57291;37.520;15.106;2024-02-04T14:07:31;15.20;;;4.75;;
54555;SDS011;57291;37.520;15.106;2024-02-04T14:09:59;16.23;;;3.28;;
54555;SDS011;57291;37.520;15.106;2024-02-04T14:12:27;9.70;;;3.03;;
54555;SDS011;57291;37.520;15.106;2024-02-04T14:14:56;9.77;;;2.95;;
54555;SDS011;57291;37.520;15.106;2024-02-04T14:17:24;7.50;;;3.13;;
54555;SDS011;57291;37.520;15.106;2024-02-04T14:19:51;7.38;;;2.92;;
54555;SDS011;57291;37.520;15.106;2024-02-04T14:22:19;10.82;;;2.90;;
54555;SDS011;57291;37.520;15.106;2024-02-04T14:24:47;15.75;;;3.85;;
54555;SDS011;57291;37.520;15.106;2024-02-04T14:27:14;13.80;;;3.13;;
54555;SDS011;57291;37.520;15.106;2024-02-04T14:29:42;13.75;;;3.30;;
54555;SDS011;57291;37.520;15.106;2024-02-04T14:32:10;12.60;;;3.38;;
54555;SDS011;57291;37.520;15.106;2024-02-04T14:34:37;17.77;;;4.05;;
54555;SDS011;57291;37.520;15.106;2024-02-04T14:37:04;15.45;;;4.45;;
54555;SDS011;57291;37.520;15.106;2024-02-04T14:39:32;12.68;;;3.60;;
54555;SDS011;57291;37.520;15.106;2024-02-04T14:41:59;14.52;;;3.83;;
54555;SDS011;57291;37.520;15.106;2024-02-04T14:44:28;16.95;;;3.30;;
54555;SDS011;57291;37.520;15.106;2024-02-04T14:46:56;16.20;;;3.72;;
54555;SDS011;57291;37.520;15.106;2024-02-04T14:49:24;12.52;;;3.65;;
54555;SDS011;57291;37.520;15.106;2024-02-04T14:51:54;13.25;;;3.72;;
54555;SDS011;57291;37.520;15.106;2024-02-04T14:54:21;13.35;;;3.10;;
54555;SDS011;57291;37.520;15.106;2024-02-04T14:56:49;9.80;;;2.88;;